x

Matinicus Rock, Me (mism1) Weather Station

10:00am - Sat 30th May 2015 All times are EDT. -4 hours from GMT.

  • Wind
    17mph
  • 空気 Temp 50°f
  • Sea Pressure 1021.5mb
  • Matinicus Rock, Me
  • Matinicus Rock, Me

More Historic Weather Station data

Upgrade to MSW Pro to gain access to the past 30 days of data for over 8000 Wavebouys and Weather Stations around the globe.

Join Pro

Comparision Forecast

View Surf forecast
   
Sat 05/30 10:00am 17
mph
1021.5mb 50f
9:00am 13 14 mph 1022.2mb 50f
8:00am 15 16 mph 1022.5mb 50f
7:00am 13
mph
1022.2mb 50f
6:00am 14
mph
1022.2mb 50f
5:00am 11 13 mph 1022.2mb 50f
4:00am 10 11 mph 1022.5mb 53f
3:00am 14
mph
1022.8mb 52f
2:00am 15
mph
1023.1mb 53f
1:00am 13 14 mph 1023.3mb 54f
12:00am 10 11 mph 1023.8mb 56f
Fri 05/29 11:00pm 11
mph
1024.2mb 55f
10:00pm 9 10 mph 1024.3mb 55f
9:00pm 7
mph
1024.6mb 54f
8:00pm 8 9 mph 1024.8mb 55f
7:00pm 5
mph
1024.8mb 54f
6:00pm 3 5 mph 1024.9mb 56f
5:00pm 5
mph
1025.2mb 60f
4:00pm 7 8 mph 1025.6mb 60f
3:00pm 9
mph
1025.5mb 60f
2:00pm 7 8 mph 1025.7mb 63f
1:00pm  -  mph 1025.8mb 64f
12:00pm  -  mph 1025.7mb 62f
11:00am  -  2 mph 1026mb 63f
10:00am 9
mph
1025.7mb 60f
9:00am 11 13 mph 1025.4mb 58f
8:00am 15 16 mph 1024.7mb 56f
7:00am 17
mph
1024.3mb 57f
6:00am 17
mph
1023.4mb 55f
5:00am 17 18 mph 1022.4mb 58f
4:00am 16 17 mph 1022mb 60f
3:00am 15 16 mph 1021.7mb 59f
2:00am 15 16 mph 1021.4mb 55f
1:00am 11
mph
1021mb 52f
12:00am 8
mph
1020.5mb 52f
Thu 05/28 11:00pm 11 13 mph 1020.4mb 51f
10:00pm 13 14 mph 1019.8mb 55f
9:00pm 11 13 mph 1019.8mb 58f
8:00pm 11 13 mph 1018mb 53f
7:00pm 22 23 mph 1018.5mb 55f
6:00pm 21 22 mph 1017.8mb 51f
5:00pm 29 30 mph 1016.6mb 54f
4:00pm 25 28 mph 1016.8mb 53f
3:00pm 30 31 mph 1017.4mb 53f
2:00pm 28 29 mph 1017.7mb 52f
1:00pm 23 25 mph 1018.6mb 52f
12:00pm 28 29 mph 1018.8mb 52f
11:00am 18 21 mph 1019.4mb 51f
10:00am 23 24 mph 1019.4mb 51f
9:00am 23 24 mph 1019.3mb 51f
8:00am 23 25 mph 1019.2mb 51f
7:00am 25 28 mph 1018.7mb 51f
6:00am 26 28 mph 1018.4mb 51f
5:00am 25 26 mph 1018mb 52f
4:00am 28 30 mph 1017.5mb 52f
3:00am 31 33 mph 1017.5mb 53f
2:00am 31 32 mph 1017.6mb 53f
1:00am 32 36 mph 1017.8mb 53f
12:00am 31 34 mph 1017.9mb 54f
Wed 05/27 11:00pm 33 36 mph 1018mb 55f
10:00pm 37 40 mph 1017.9mb 56f
9:00pm 33 36 mph 1017.5mb 55f
8:00pm 33 37 mph 1016.9mb 55f
7:00pm 36 43 mph 1016.6mb 55f
6:00pm 37 39 mph 1016.7mb 55f
5:00pm 30 33 mph 1016.9mb 55f
4:00pm 29 31 mph 1017.6mb 53f
3:00pm 25 28 mph 1018.5mb 53f
2:00pm 23 25 mph 1019.3mb 52f
1:00pm 23 24 mph 1020mb 52f
12:00pm 26 29 mph 1020mb 52f
11:00am 24 26 mph 1020.1mb 51f
10:00am 21 22 mph 1020.3mb 51f
9:00am 23 25 mph 1020.3mb 51f
8:00am 22 23 mph 1020.3mb 51f
7:00am 23 24 mph 1019.9mb 51f
6:00am 25 26 mph 1019.3mb 52f
5:00am 25 26 mph 1019mb 52f
4:00am 26 29 mph 1018.6mb 52f
3:00am 26 28 mph 1018.8mb 52f
2:00am 21
mph
1019.1mb 52f
1:00am 21 22 mph 1018.9mb 52f
12:00am 24 25 mph 1018.7mb 53f
Tue 05/26 11:00pm 26 28 mph 1018.3mb 54f
10:00pm 25 26 mph 1017.8mb 53f
9:00pm 28 29 mph 1017.4mb 54f
8:00pm 25 26 mph 1017.4mb 52f
7:00pm 24 25 mph 1017.6mb 52f
6:00pm 28 29 mph 1017.4mb 53f
5:00pm 25 28 mph 1017.6mb 53f
4:00pm 30 31 mph 1017.4mb 53f